CheckWX is a tool to help pilots better visualize weather data.  It is not intended as a substitute for an official pre-flight weather briefing.

12:33:44 UTC

KMBS TAF
Mbs International Airport
Saginaw, Michigan, USA
KMBS 161120Z 1612/1712 24010KT P6SM BKN250 FM161600 22014KT P6SM SCT080 BKN150 FM161900 22012KT P6SM VCTS SCT040 BKN060CB FM162200 20010KT P6SM SCT060 BKN200 FM170400 VRB04KT 5SM BR SCT022 BKN040

Jul-16@
12:00 UTC

Jul-16 @ 12:00 UTC

Jul-16@
16:00 UTC

Jul-16 @ 16:00 UTC

KMBS 161120Z 1612/1712 24010KT P6SM BKN250
Wind
  • 240° at 10 KTS
Cloud Levels
  • Broken at 25,000' AGL

Jul-16@
16:00 UTC

Jul-16 @ 16:00 UTC

Jul-16@
19:00 UTC

Jul-16 @ 19:00 UTC

FM161600 22014KT P6SM SCT080 BKN150

From

From Standard forecast or significant change

Wind
  • 220° at 14 KTS
Cloud Levels
  • Scattered at 8,000' AGL
  • Broken at 15,000' AGL

Jul-16@
19:00 UTC

Jul-16 @ 19:00 UTC

Jul-16@
22:00 UTC

Jul-16 @ 22:00 UTC

FM161900 22012KT P6SM VCTS SCT040 BKN060CB

From

From Standard forecast or significant change

Wind
  • 220° at 12 KTS
Conditions
Area Thunderstorm
Cloud Levels
  • Scattered at 4,000' AGL
  • Broken at 6,000' AGL

Jul-16@
22:00 UTC

Jul-16 @ 22:00 UTC

Jul-17@
04:00 UTC

Jul-17 @ 04:00 UTC

FM162200 20010KT P6SM SCT060 BKN200

From

From Standard forecast or significant change

Wind
  • 200° at 10 KTS
Cloud Levels
  • Scattered at 6,000' AGL
  • Broken at 20,000' AGL

Jul-17@
04:00 UTC

Jul-17 @ 04:00 UTC

Jul-17@
12:00 UTC

Jul-17 @ 12:00 UTC

FM170400 VRB04KT 5SM BR SCT022 BKN040

From

From Standard forecast or significant change

Wind
  • Variable at 4 KTS
Conditions
Mist
Cloud Levels
  • Scattered at 2,200' AGL
  • Broken at 4,000' AGL